CheckWX is a tool to help pilots better visualize weather data.  It is not intended as a substitute for an official pre-flight weather briefing.

07:00:57 UTC

CYQW METAR
North Battleford Airport
North Battleford, Canada
Current

1 hour ago

CYQW 210600Z AUTO 11009KT 9SM CLR 09/M02 A3002 RMK SLP179
Observed
May-21 @ 06:00 UTC
Wind
  • 110° at 9 KTS
Visibility
9 SM
Flight Rules
VFR
Cloud Levels
  • Clear skies
Temperature
C / 48°F
Dewpoint
-2°C / 28°F
Humidity
46%
Altimeter
30.02" Hg
Pressure
1016.62 hPa
Previous

2 hours ago

CYQW 210500Z AUTO 09010KT 9SM CLR 11/M01 A3002 RMK SLP178
Observed
May-21 @ 05:00 UTC
Wind
  • 090° at 10 KTS
Visibility
9 SM
Flight Rules
VFR
Cloud Levels
  • Clear skies
Temperature
11°C / 52°F
Dewpoint
-1°C / 30°F
Humidity
44%
Altimeter
30.02" Hg
Pressure
1016.62 hPa
Previous

3 hours ago

CYQW 210400Z AUTO 10010KT 9SM CLR 11/M03 A3003 RMK SLP180
Observed
May-21 @ 04:00 UTC
Wind
  • 100° at 10 KTS
Visibility
9 SM
Flight Rules
VFR
Cloud Levels
  • Clear skies
Temperature
11°C / 52°F
Dewpoint
-3°C / 27°F
Humidity
38%
Altimeter
30.03" Hg
Pressure
1016.92 hPa